createdAt,value
2018-06-11T00:03:38.813Z,17.27
2018-06-11T00:08:43.807Z,17.13
2018-06-11T00:13:47.090Z,17.00
2018-06-11T00:18:50.358Z,16.82
2018-06-11T00:23:53.578Z,16.77
2018-06-11T00:28:56.623Z,16.74
2018-06-11T16:33:01.761Z,26.20
2018-06-11T16:38:04.890Z,26.08
2018-06-11T16:43:07.973Z,25.81
2018-06-11T16:48:12.189Z,25.54
2018-06-11T16:53:15.420Z,25.51
2018-06-11T16:58:19.053Z,25.54
2018-06-11T17:03:22.224Z,25.33
2018-06-11T17:08:25.485Z,25.30
2018-06-11T17:13:28.676Z,25.73
2018-06-11T17:18:31.789Z,25.16
2018-06-11T17:23:34.869Z,24.62
2018-06-11T17:28:38.023Z,24.49
2018-06-11T17:33:41.116Z,24.45
2018-06-11T17:38:44.244Z,24.28
2018-06-11T17:43:47.453Z,23.91
2018-06-11T17:48:50.504Z,23.78
2018-06-11T17:53:56.924Z,23.65
2018-06-11T17:59:00.075Z,23.49
2018-06-11T18:04:05.210Z,23.45
2018-06-11T18:09:09.502Z,23.13
2018-06-11T18:14:12.698Z,22.75
2018-06-11T18:19:15.865Z,22.78
2018-06-11T18:35:13.109Z,22.25
2018-06-11T18:40:30.286Z,22.04
2018-06-11T18:45:34.392Z,22.03
2018-06-11T18:50:37.525Z,21.98
2018-06-11T18:55:40.562Z,21.96
2018-06-11T19:00:43.763Z,21.98
2018-06-11T19:05:51.510Z,21.95
2018-06-11T19:10:56.642Z,21.89
2018-06-11T19:15:59.829Z,21.76
2018-06-11T19:21:03.074Z,21.53
2018-06-11T19:26:06.359Z,21.27
2018-06-11T19:31:10.556Z,21.13
2018-06-11T19:36:13.673Z,21.02
2018-06-11T19:41:16.858Z,21.04
2018-06-11T19:46:20.155Z,21.01
2018-06-11T19:51:26.173Z,20.86
2018-06-11T19:56:30.444Z,20.61
2018-06-11T20:01:33.628Z,20.60
2018-06-11T20:06:36.924Z,20.33
2018-06-11T20:11:40.034Z,20.03
2018-06-11T20:16:43.290Z,19.72
2018-06-11T20:21:46.414Z,19.68
2018-06-11T20:26:49.558Z,19.68
2018-06-11T20:31:52.814Z,19.73
2018-06-11T20:36:55.949Z,19.65
2018-06-11T20:41:59.134Z,19.56
2018-06-11T20:47:02.473Z,19.42
2018-06-11T20:52:05.894Z,19.41
2018-06-11T20:57:09.080Z,19.58
2018-06-11T21:02:12.302Z,19.48
2018-06-11T21:07:15.519Z,19.36
2018-06-11T21:12:18.772Z,19.24
2018-06-11T21:17:22.981Z,18.91
2018-06-11T21:22:26.054Z,18.59
2018-06-11T21:27:29.241Z,18.53
2018-06-11T21:32:32.279Z,18.50
2018-06-11T21:37:35.383Z,18.20
2018-06-11T21:42:38.488Z,17.96
2018-06-11T21:47:41.576Z,18.01
2018-06-11T21:52:44.693Z,18.21
2018-06-11T21:57:47.811Z,18.32
2018-06-11T22:02:51.010Z,18.34
2018-06-11T22:07:54.077Z,18.39
2018-06-11T22:12:57.633Z,18.53
2018-06-11T22:18:00.670Z,18.50
2018-06-11T22:23:03.997Z,18.35
2018-06-11T22:28:07.108Z,18.13
2018-06-11T22:33:10.961Z,18.02
2018-06-11T22:38:14.138Z,18.18
2018-06-11T22:43:17.274Z,17.98
2018-06-11T22:48:20.415Z,17.91
2018-06-11T22:53:23.552Z,17.78
2018-06-11T22:58:26.671Z,17.73
2018-06-11T23:03:29.800Z,17.69
2018-06-11T23:08:39.492Z,17.68
2018-06-11T23:13:42.558Z,17.69
2018-06-11T23:18:47.688Z,17.52
2018-06-11T23:23:50.858Z,17.34
2018-06-11T23:28:54.005Z,17.29
2018-06-11T23:33:57.102Z,17.23
2018-06-11T23:39:00.340Z,17.05
2018-06-11T23:49:36.507Z,16.79
2018-06-11T23:54:39.653Z,16.80
2018-06-11T23:59:42.810Z,16.71
